Time;durP1;ratioP1;P1;durP2;ratioP2;P2;SDS_P1;SDS_P2;PMS_P1;PMS_P2;Temp;Humidity;BMP_temperature;BMP_pressure;BME280_temperature;BME280_humidity;BME280_pressure;Samples;Min_cycle;Max_cycle;Signal;HPM_P1;HPM_P2
2023/09/29 21:22:12;;;;;;;4.25;2.55;;;;;;;;;;3847374;37;43498;-73
2023/09/29 21:24:56;;;;;;;2.97;2.10;;;;;;;;;;3847408;37;43170;-73
2023/09/29 21:27:45;;;;;;;4.80;3.20;;;;;;;;;;4399651;32;60031;-73
2023/09/29 21:30:32;;;;;;;;;;;;;;;;;;4388755;32;70465;-73
2023/09/29 21:33:19;;;;;;;4.15;2.62;;;;;;;;;;4387634;32;67418;-72
2023/09/29 21:36:08;;;;;;;;;;;;;;;;;;4411270;32;66605;-73
2023/09/29 21:38:55;;;;;;;3.50;2.12;;;;;;;;;;4399188;32;72114;-74
2023/09/29 21:41:42;;;;;;;6.03;3.40;;;;;;;;;;4387787;32;66961;-72
2023/09/29 21:44:29;;;;;;;3.20;2.20;;;;;;;;;;4398193;32;67479;-73
2023/09/29 21:47:15;;;;;;;;;;;;;;;;;;4399285;32;59951;-72
2023/09/29 21:50:02;;;;;;;3.72;2.17;;;;;;;;;;4387593;32;73042;-73
2023/09/29 21:52:49;;;;;;;;;;;;;;;;;;4410454;32;66043;-73
2023/09/29 21:55:36;;;;;;;4.90;2.78;;;;;;;;;;4398126;32;67318;-73
2023/09/29 21:58:23;;;;;;;3.95;2.50;;;;;;;;;;4409833;32;60572;-73
2023/09/29 22:01:09;;;;;;;;;;;;;;;;;;4411770;32;70589;-73
2023/09/29 22:03:57;;;;;;;4.93;2.72;;;;;;;;;;4399687;32;69662;-74
2023/09/29 22:06:45;;;;;;;4.72;2.85;;;;;;;;;;4398607;32;67537;-71
2023/09/29 22:09:33;;;;;;;3.58;2.45;;;;;;;;;;4376562;32;72009;-73
2023/09/29 22:12:22;;;;;;;4.55;2.20;;;;;;;;;;4409406;32;65884;-73
2023/09/29 22:15:10;;;;;;;3.53;2.22;;;;;;;;;;4408973;32;69512;-73
2023/09/29 22:17:57;;;;;;;4.55;2.58;;;;;;;;;;4397626;32;67759;-73
2023/09/29 22:20:44;;;;;;;4.22;2.62;;;;;;;;;;4386936;32;69675;-73
2023/09/29 22:23:31;;;;;;;3.75;2.20;;;;;;;;;;4408749;32;64662;-74
2023/09/29 22:26:31;;;;;;;4.10;2.12;;;;;;;;;;4398520;32;67189;-72
2023/09/29 22:29:35;;;;;;;3.78;2.10;;;;;;;;;;3868646;36;43496;-73
2023/09/29 22:32:22;;;;;;;2.60;1.80;;;;;;;;;;4390418;32;58778;-73
2023/09/29 22:35:09;;;;;;;3.08;1.92;;;;;;;;;;4379055;32;69239;-73
2023/09/29 22:37:57;;;;;;;3.65;1.90;;;;;;;;;;4389767;32;70721;-73
2023/09/29 22:40:44;;;;;;;2.75;1.62;;;;;;;;;;4392955;32;67566;-73
2023/09/29 22:43:31;;;;;;;;;;;;;;;;;;4401015;32;72297;-73
2023/09/29 22:46:18;;;;;;;1.80;1.37;;;;;;;;;;4389972;32;66337;-73
2023/09/29 22:49:06;;;;;;;2.08;1.67;;;;;;;;;;4400532;32;68139;-73
2023/09/29 22:51:53;;;;;;;3.20;1.60;;;;;;;;;;4400637;32;59615;-73
2023/09/29 22:54:40;;;;;;;2.40;1.73;;;;;;;;;;4403455;32;71656;-71
2023/09/29 22:57:27;;;;;;;2.65;1.70;;;;;;;;;;4426094;32;66212;-73
2023/09/29 23:00:14;;;;;;;;;;;;;;;;;;4392955;32;66476;-73
2023/09/29 23:03:01;;;;;;;2.58;1.60;;;;;;;;;;4392881;32;58936;-73
2023/09/29 23:05:50;;;;;;;2.03;1.40;;;;;;;;;;4403009;32;70622;-74
2023/09/29 23:08:38;;;;;;;3.78;1.55;;;;;;;;;;4389992;32;68457;-73
2023/09/29 23:11:25;;;;;;;3.30;1.80;;;;;;;;;;4400657;32;70433;-73
2023/09/29 23:14:14;;;;;;;3.17;1.92;;;;;;;;;;4402920;32;71629;-74
2023/09/29 23:17:02;;;;;;;4.03;1.95;;;;;;;;;;4426041;32;65367;-73
2023/09/29 23:19:48;;;;;;;1.87;1.33;;;;;;;;;;4410912;32;68197;-73
2023/09/29 23:22:37;;;;;;;3.08;1.65;;;;;;;;;;4389458;32;66763;-73
2023/09/29 23:25:24;;;;;;;2.95;1.80;;;;;;;;;;4392208;32;71697;-73
2023/09/29 23:28:11;;;;;;;2.50;1.70;;;;;;;;;;4413588;32;65896;-73
2023/09/29 23:30:58;;;;;;;;;;;;;;;;;;4414303;32;67632;-73
2023/09/29 23:33:43;;;;;;;3.42;2.08;;;;;;;;;;3847574;37;43011;-74
2023/09/29 23:36:33;;;;;;;2.50;1.58;;;;;;;;;;4399949;32;59271;-73
2023/09/29 23:39:20;;;;;;;;;;;;;;;;;;4399128;32;71717;-73
2023/09/29 23:42:07;;;;;;;3.05;1.67;;;;;;;;;;4410428;32;68634;-73
2023/09/29 23:44:56;;;;;;;2.08;1.50;;;;;;;;;;4398864;32;68498;-73
2023/09/29 23:47:50;;;;;;;2.40;1.58;;;;;;;;;;4398319;32;71872;-73
2023/09/29 23:50:37;;;;;;;2.20;1.60;;;;;;;;;;4399156;32;64886;-73
2023/09/29 23:53:30;;;;;;;2.20;1.58;;;;;;;;;;4372787;32;67282;-73
2023/09/29 23:56:17;;;;;;;3.85;1.70;;;;;;;;;;4373314;32;60665;-74
2023/09/29 23:59:05;;;;;;;3.03;1.90;;;;;;;;;;4372469;32;72902;-73
